Time;durP1;ratioP1;P1;durP2;ratioP2;P2;SDS_P1;SDS_P2;PMS_P1;PMS_P2;Temp;Humidity;BMP_temperature;BMP_pressure;BME280_temperature;BME280_humidity;BME280_pressure;Samples;Min_cycle;Max_cycle;Signal;HPM_P1;HPM_P2
2022/04/14 00:01:27;;;;;;;16.23;9.47;;;;;;;12.96;79.35;95320.91;4376238;32;20275;-58
2022/04/14 00:03:53;;;;;;;11.37;10.13;;;;;;;13.13;78.69;95320.19;4365659;32;20232;-59
2022/04/14 00:06:18;;;;;;;15.87;10.63;;;;;;;12.97;79.52;95314.50;4366226;32;20192;-58
2022/04/14 00:08:44;;;;;;;12.27;9.73;;;;;;;12.92;79.78;95319.94;4371469;32;20189;-58
2022/04/14 00:11:09;;;;;;;18.10;9.03;;;;;;;12.80;80.32;95338.38;4370527;32;20181;-59
2022/04/14 00:13:34;;;;;;;13.57;8.83;;;;;;;12.94;79.57;95331.09;4359380;32;20235;-58
2022/04/14 00:15:59;;;;;;;10.07;8.97;;;;;;;12.95;79.26;95327.31;4361703;32;20200;-59
2022/04/14 00:18:25;;;;;;;9.50;8.40;;;;;;;13.04;78.81;95333.47;4369910;32;20189;-58
2022/04/14 00:20:50;;;;;;;8.83;8.10;;;;;;;13.04;78.74;95338.81;4371139;32;20185;-59
2022/04/14 00:23:16;;;;;;;9.33;8.30;;;;;;;13.18;78.04;95340.59;4365363;32;20204;-59
2022/04/14 00:25:41;;;;;;;11.97;8.67;;;;;;;13.11;78.16;95343.66;4365141;32;20207;-59
2022/04/14 00:28:06;;;;;;;9.63;8.57;;;;;;;12.95;78.74;95337.97;4356019;32;20193;-59
2022/04/14 00:30:32;;;;;;;11.97;9.17;;;;;;;12.86;79.03;95341.72;4352688;32;20223;-59
2022/04/14 00:32:57;;;;;;;8.33;7.63;;;;;;;12.93;78.62;95342.81;4363387;32;20237;-59
2022/04/14 00:35:22;;;;;;;9.13;8.23;;;;;;;13.01;78.01;95350.06;4355225;32;20189;-59
2022/04/14 00:37:48;;;;;;;8.37;7.67;;;;;;;13.02;77.82;95343.66;4359135;32;20220;-59
2022/04/14 00:40:13;;;;;;;10.57;8.70;;;;;;;12.99;77.71;95352.25;4361279;32;20217;-59
2022/04/14 00:42:39;;;;;;;10.30;8.40;;;;;;;12.90;77.84;95353.28;4371694;32;20177;-59
2022/04/14 00:45:06;;;;;;;8.80;8.00;;;;;;;12.81;78.13;95352.50;4372812;32;20181;-59
2022/04/14 00:47:32;;;;;;;13.70;8.27;;;;;;;12.83;78.28;95353.75;4356393;32;20193;-59
2022/04/14 00:49:58;;;;;;;8.63;7.93;;;;;;;12.85;78.17;95356.12;4368719;32;20293;-59
2022/04/14 00:52:25;;;;;;;9.47;8.50;;;;;;;12.76;78.45;95350.72;4371763;32;20231;-59
2022/04/14 00:54:50;;;;;;;11.70;8.83;;;;;;;12.86;78.01;95352.37;4364635;32;20197;-60
2022/04/14 00:57:16;;;;;;;8.57;7.83;;;;;;;12.71;78.53;95350.84;4376243;32;20226;-59
2022/04/14 00:59:42;;;;;;;8.83;8.07;;;;;;;12.72;78.37;95349.78;4373130;32;20242;-59
2022/04/14 01:02:08;;;;;;;10.17;8.47;;;;;;;12.77;78.12;95354.19;4359268;32;20247;-59
2022/04/14 01:04:34;;;;;;;9.63;8.20;;;;;;;12.70;78.25;95354.59;4372477;32;20193;-59
2022/04/14 01:06:59;;;;;;;11.40;8.47;;;;;;;12.74;78.03;95352.91;4373676;32;20271;-59
2022/04/14 01:09:26;;;;;;;8.77;7.97;;;;;;;12.71;77.94;95358.84;4372238;32;20180;-59
2022/04/14 01:11:56;;;;;;;8.40;7.73;;;;;;;12.72;77.94;95363.88;4369129;32;20189;-59
2022/04/14 01:14:35;;;;;;;9.27;7.80;;;;;;;12.63;78.32;95355.06;4375148;32;20189;-59
2022/04/14 01:17:06;;;;;;;8.70;7.87;;;;;;;12.60;78.36;95361.00;4361018;32;20186;-59
2022/04/14 01:19:32;;;;;;;8.87;8.13;;;;;;;12.55;78.52;95369.09;4357859;32;20197;-58
2022/04/14 01:22:02;;;;;;;9.67;8.67;;;;;;;12.28;79.80;95369.22;4365140;32;20286;-60
2022/04/14 01:24:29;;;;;;;10.73;9.30;;;;;;;12.22;80.10;95381.09;4361144;32;20190;-58
2022/04/14 01:26:55;;;;;;;10.10;9.07;;;;;;;12.16;80.49;95375.09;4372079;32;20265;-58
2022/04/14 01:29:22;;;;;;;9.97;9.00;;;;;;;12.09;80.93;95372.06;4369003;32;20185;-59
2022/04/14 01:31:48;;;;;;;10.93;9.47;;;;;;;12.17;80.55;95368.69;4367037;32;20189;-59
2022/04/14 01:34:14;;;;;;;10.40;9.13;;;;;;;12.27;80.01;95373.75;4359408;32;20221;-59
2022/04/14 01:36:39;;;;;;;10.73;9.30;;;;;;;12.31;79.82;95374.72;4352463;32;20265;-60
2022/04/14 01:39:04;;;;;;;11.23;9.50;;;;;;;12.27;79.90;95376.41;4360616;32;20169;-58
2022/04/14 01:41:30;;;;;;;10.33;9.23;;;;;;;12.20;80.22;95381.38;4359417;32;20198;-59
2022/04/14 01:43:55;;;;;;;11.77;10.20;;;;;;;12.33;79.67;95374.44;4366246;32;20189;-58
2022/04/14 01:46:20;;;;;;;10.20;9.30;;;;;;;12.35;79.39;95386.34;4362969;32;20189;-58
2022/04/14 01:48:47;;;;;;;10.00;9.00;;;;;;;12.19;80.11;95382.47;4368402;32;20241;-58
2022/04/14 01:51:12;;;;;;;10.50;9.50;;;;;;;12.29;79.70;95387.53;4374433;32;20184;-58
2022/04/14 01:53:37;;;;;;;10.50;9.40;;;;;;;12.04;80.66;95383.63;4377743;32;20184;-59
2022/04/14 01:56:05;;;;;;;13.23;9.47;;;;;;;12.17;80.07;95383.84;4379358;32;20218;-58
2022/04/14 01:58:31;;;;;;;11.47;9.30;;;;;;;12.14;80.33;95389.78;4362995;32;20193;-59
2022/04/14 02:00:56;;;;;;;12.47;9.50;;;;;;;12.05;80.51;95387.81;4368123;32;20230;-58
2022/04/14 02:03:21;;;;;;;11.93;9.57;;;;;;;12.11;80.37;95395.69;4357770;32;20193;-58
2022/04/14 02:05:47;;;;;;;10.60;9.33;;;;;;;12.16;80.17;95396.38;4366543;32;20254;-58
2022/04/14 02:08:12;;;;;;;9.47;8.60;;;;;;;12.03;80.60;95389.22;4372714;32;20223;-58
2022/04/14 02:10:37;;;;;;;10.50;8.90;;;;;;;12.09;80.74;95392.53;4375087;32;20204;-59
2022/04/14 02:13:03;;;;;;;12.57;9.10;;;;;;;12.13;80.47;95388.19;4371906;32;20188;-58
2022/04/14 02:15:28;;;;;;;9.57;8.57;;;;;;;11.99;81.00;95391.69;4368938;32;20189;-59
2022/04/14 02:17:54;;;;;;;9.53;8.47;;;;;;;11.99;81.20;95397.03;4353227;32;20244;-61
2022/04/14 02:20:19;;;;;;;9.07;7.53;;;;;;;12.03;80.66;95395.34;4372312;32;20189;-60
2022/04/14 02:22:44;;;;;;;7.93;7.20;;;;;;;12.00;80.92;95395.16;4369797;32;20189;-61
2022/04/14 02:25:10;;;;;;;8.03;7.43;;;;;;;11.92;81.28;95391.31;4374369;32;20188;-66
2022/04/14 02:27:35;;;;;;;9.50;7.50;;;;;;;11.92;81.32;95396.63;4367086;32;20223;-61
2022/04/14 02:30:01;;;;;;;8.53;7.73;;;;;;;12.02;81.05;95398.28;4353414;32;20208;-61
2022/04/14 02:32:26;;;;;;;8.57;7.70;;;;;;;11.99;81.06;95391.69;4363459;32;20197;-61
2022/04/14 02:34:51;;;;;;;9.73;7.87;;;;;;;11.91;81.23;95395.06;4372716;32;20193;-61
2022/04/14 02:37:16;;;;;;;8.03;7.23;;;;;;;12.03;80.95;95399.88;4352856;32;20185;-61
2022/04/14 02:39:42;;;;;;;11.83;7.97;;;;;;;12.10;80.57;95399.44;4356316;32;20181;-61
2022/04/14 02:42:07;;;;;;;8.10;7.43;;;;;;;12.10;80.51;95402.88;4366241;32;20173;-60
2022/04/14 02:44:32;;;;;;;7.83;7.13;;;;;;;12.09;80.54;95397.87;4367849;32;20189;-61
2022/04/14 02:46:58;;;;;;;9.10;7.57;;;;;;;11.90;81.18;95395.34;4370866;32;20208;-61
2022/04/14 02:49:23;;;;;;;8.33;7.13;;;;;;;11.89;81.39;95393.78;4368498;32;20262;-61
2022/04/14 02:51:49;;;;;;;8.70;7.90;;;;;;;11.93;81.13;95395.53;4366328;32;20317;-60
2022/04/14 02:54:14;;;;;;;12.47;8.47;;;;;;;11.88;81.16;95393.00;4365135;32;20247;-60
2022/04/14 02:56:40;;;;;;;9.60;7.50;;;;;;;11.68;81.96;95393.41;4368984;32;20192;-66
2022/04/14 02:59:05;;;;;;;7.23;6.63;;;;;;;11.86;81.61;95394.38;4380348;32;20203;-60
2022/04/14 03:01:30;;;;;;;8.43;7.83;;;;;;;11.81;81.59;95394.50;4374923;32;20260;-61
2022/04/14 03:03:56;;;;;;;7.93;7.27;;;;;;;11.66;82.22;95396.34;4373041;32;20209;-61
2022/04/14 03:06:21;;;;;;;11.10;7.13;;;;;;;11.56;82.71;95404.56;4375890;32;20193;-60
2022/04/14 03:08:46;;;;;;;13.13;7.80;;;;;;;11.70;82.22;95401.88;4369488;32;20193;-61
2022/04/14 03:11:12;;;;;;;9.70;8.23;;;;;;;11.76;81.92;95402.56;4374160;32;20211;-62
2022/04/14 03:13:38;;;;;;;8.37;7.57;;;;;;;11.75;82.08;95404.41;4372073;32;20181;-61
2022/04/14 03:16:07;;;;;;;8.03;7.33;;;;;;;11.55;82.83;95405.63;4373283;32;20207;-61
2022/04/14 03:18:33;;;;;;;8.27;7.50;;;;;;;11.71;82.14;95409.53;4364980;32;20180;-60
2022/04/14 03:20:58;;;;;;;9.57;7.87;;;;;;;11.67;82.50;95402.44;4355239;32;20181;-61
2022/04/14 03:23:24;;;;;;;8.67;7.87;;;;;;;11.66;82.56;95411.50;4364833;32;20228;-61
2022/04/14 03:25:49;;;;;;;10.87;7.90;;;;;;;11.76;82.19;95415.84;4363245;32;20192;-62
2022/04/14 03:28:15;;;;;;;10.40;7.80;;;;;;;11.65;82.70;95409.94;4371552;32;20300;-61
2022/04/14 03:30:40;;;;;;;11.47;8.43;;;;;;;11.59;82.65;95411.94;4368972;32;20173;-64
2022/04/14 03:33:06;;;;;;;8.47;7.67;;;;;;;11.65;82.38;95410.72;4372167;32;20261;-60
2022/04/14 03:35:31;;;;;;;8.43;7.63;;;;;;;11.71;82.09;95409.53;4356572;32;20227;-61
2022/04/14 03:37:56;;;;;;;8.43;7.63;;;;;;;11.66;82.07;95404.31;4367367;32;20184;-60
2022/04/14 03:40:22;;;;;;;8.07;7.37;;;;;;;11.50;82.77;95405.72;4368121;32;20181;-61
2022/04/14 03:42:47;;;;;;;8.60;7.47;;;;;;;11.51;83.01;95409.97;4366250;32;20204;-61
2022/04/14 03:45:13;;;;;;;8.30;7.50;;;;;;;11.49;82.92;95417.44;4368563;32;20203;-61
2022/04/14 03:47:38;;;;;;;8.47;7.77;;;;;;;11.47;83.20;95416.16;4357914;32;20185;-61
2022/04/14 03:50:04;;;;;;;7.40;6.63;;;;;;;11.14;84.67;95421.56;4372519;32;20273;-61
2022/04/14 03:52:29;;;;;;;9.47;7.97;;;;;;;11.18;84.64;95422.56;4363661;32;20181;-61
2022/04/14 03:54:55;;;;;;;10.00;8.50;;;;;;;11.09;85.23;95431.47;4365162;32;20189;-61
2022/04/14 03:57:20;;;;;;;10.23;9.17;;;;;;;11.17;84.93;95425.50;4363453;32;20180;-61
2022/04/14 03:59:45;;;;;;;7.93;7.27;;;;;;;11.16;84.80;95430.03;4364835;32;20193;-61
2022/04/14 04:02:11;;;;;;;9.90;7.83;;;;;;;11.19;84.73;95429.44;4374236;32;20250;-62
2022/04/14 04:04:36;;;;;;;8.40;7.57;;;;;;;11.18;85.03;95437.72;4362841;32;20177;-62
2022/04/14 04:07:02;;;;;;;8.33;7.63;;;;;;;11.17;84.82;95431.59;4363274;32;20185;-61
2022/04/14 04:09:27;;;;;;;10.00;7.83;;;;;;;11.28;84.52;95442.81;4372202;32;20203;-61
2022/04/14 04:11:58;;;;;;;8.93;8.13;;;;;;;11.22;84.73;95439.47;4366157;32;20215;-61
2022/04/14 04:14:24;;;;;;;8.63;7.90;;;;;;;11.30;84.21;95436.13;4366929;32;20185;-61
2022/04/14 04:16:49;;;;;;;9.17;8.23;;;;;;;11.36;84.03;95439.47;4376406;32;20180;-61
2022/04/14 04:19:14;;;;;;;11.13;8.90;;;;;;;11.29;84.29;95445.19;4366765;32;20211;-61
2022/04/14 04:21:40;;;;;;;9.00;7.83;;;;;;;11.21;84.89;95445.88;4375262;32;20181;-61
2022/04/14 04:24:05;;;;;;;9.43;8.37;;;;;;;11.38;84.03;95447.94;4366716;32;20196;-61
2022/04/14 04:26:31;;;;;;;9.40;8.40;;;;;;;11.33;84.23;95445.38;4370879;32;20279;-61
2022/04/14 04:28:56;;;;;;;9.60;8.67;;;;;;;11.36;83.97;95444.78;4355670;32;20205;-61
2022/04/14 04:31:21;;;;;;;9.57;8.67;;;;;;;11.36;83.86;95455.41;4364189;32;20177;-61
2022/04/14 04:33:51;;;;;;;9.20;8.30;;;;;;;11.45;83.42;95445.66;4371613;32;20193;-61
2022/04/14 04:36:17;;;;;;;9.67;8.63;;;;;;;11.37;83.71;95449.03;4371782;32;20197;-62
2022/04/14 04:38:42;;;;;;;9.30;8.43;;;;;;;11.43;83.42;95450.47;4368889;32;20245;-60
2022/04/14 04:41:07;;;;;;;11.83;8.27;;;;;;;11.32;83.86;95457.87;4369562;32;20207;-61
2022/04/14 04:43:33;;;;;;;11.73;9.00;;;;;;;11.06;85.00;95455.97;4364117;32;20200;-61
2022/04/14 04:45:58;;;;;;;9.70;8.83;;;;;;;11.11;84.91;95454.00;4356642;32;20193;-60
2022/04/14 04:48:23;;;;;;;9.60;8.70;;;;;;;11.19;84.77;95465.84;4353278;32;20334;-61
2022/04/14 04:50:49;;;;;;;14.57;9.17;;;;;;;11.29;83.94;95462.97;4359769;32;20314;-61
2022/04/14 04:53:14;;;;;;;9.87;8.80;;;;;;;11.13;84.69;95454.50;4375449;32;20226;-61
2022/04/14 04:55:40;;;;;;;9.83;8.80;;;;;;;11.06;85.27;95462.06;4368444;32;20176;-61
2022/04/14 04:58:05;;;;;;;11.03;8.73;;;;;;;10.98;85.61;95460.88;4352410;32;20235;-61
2022/04/14 05:00:31;;;;;;;8.50;7.80;;;;;;;11.05;85.62;95460.47;4352577;32;20265;-61
2022/04/14 05:02:56;;;;;;;12.23;8.67;;;;;;;11.22;84.85;95462.59;4366322;32;20223;-61
2022/04/14 05:05:23;;;;;;;9.87;8.93;;;;;;;11.35;84.16;95461.81;4368146;32;20195;-62
2022/04/14 05:07:49;;;;;;;10.13;8.37;;;;;;;11.38;84.14;95463.88;4352038;32;20186;-62
2022/04/14 05:10:15;;;;;;;12.17;9.27;;;;;;;11.30;84.55;95472.53;4363187;32;20220;-61
2022/04/14 05:12:40;;;;;;;12.40;8.60;;;;;;;11.40;84.38;95469.69;4376160;32;20181;-61
2022/04/14 05:15:06;;;;;;;9.20;8.30;;;;;;;11.35;84.27;95469.78;4365149;32;20184;-62
2022/04/14 05:17:31;;;;;;;9.83;8.30;;;;;;;11.43;83.93;95477.03;4370325;32;20264;-61
2022/04/14 05:19:56;;;;;;;30.27;10.37;;;;;;;11.41;84.30;95475.78;4364685;32;20193;-61
2022/04/14 05:22:22;;;;;;;35.37;11.03;;;;;;;11.55;83.81;95476.56;4364951;32;20188;-62
2022/04/14 05:24:47;;;;;;;27.13;9.33;;;;;;;11.45;84.03;95479.41;4364082;32;20228;-61
2022/04/14 05:27:12;;;;;;;31.83;9.97;;;;;;;11.57;83.74;95475.22;4363250;32;20207;-61
2022/04/14 05:29:38;;;;;;;29.40;9.23;;;;;;;11.51;84.06;95480.91;4371289;32;20215;-61
2022/04/14 05:32:03;;;;;;;43.63;10.20;;;;;;;11.46;84.58;95476.47;4370266;32;20193;-61
2022/04/14 05:34:29;;;;;;;13.73;8.57;;;;;;;11.46;84.73;95481.00;4368453;32;20207;-61
2022/04/14 05:36:54;;;;;;;15.07;9.33;;;;;;;11.50;84.52;95482.78;4367217;32;20221;-61
2022/04/14 05:39:19;;;;;;;11.43;8.53;;;;;;;11.51;84.79;95481.69;4360074;32;20181;-61
2022/04/14 05:41:44;;;;;;;16.27;8.40;;;;;;;11.52;85.06;95480.59;4360235;32;20223;-61
2022/04/14 05:44:10;;;;;;;16.73;8.50;;;;;;;11.67;84.14;95484.84;4352287;32;20244;-61
2022/04/14 05:46:35;;;;;;;13.13;8.30;;;;;;;11.68;84.31;95487.19;4372671;32;20191;-61
2022/04/14 05:49:01;;;;;;;11.67;8.17;;;;;;;11.78;84.14;95488.13;4363160;32;20256;-61
2022/04/14 05:51:27;;;;;;;9.03;8.23;;;;;;;11.70;84.28;95487.69;4366623;32;20193;-61
2022/04/14 05:53:53;;;;;;;12.20;8.30;;;;;;;11.66;84.53;95486.69;4363326;32;20211;-62
2022/04/14 05:56:19;;;;;;;10.63;8.27;;;;;;;11.66;84.93;95485.91;4370130;32;20204;-61
2022/04/14 05:58:45;;;;;;;10.87;9.10;;;;;;;11.71;84.26;95488.47;4371457;32;20244;-61
2022/04/14 06:01:10;;;;;;;9.30;7.33;;;;;;;11.73;84.38;95488.19;4362284;32;20201;-62
2022/04/14 06:03:35;;;;;;;11.07;7.97;;;;;;;11.87;83.81;95486.31;4359665;32;20304;-61
2022/04/14 06:06:01;;;;;;;9.80;8.23;;;;;;;11.92;83.52;95483.56;4363556;32;20303;-58
2022/04/14 06:08:26;;;;;;;10.40;8.13;;;;;;;11.90;83.72;95486.53;4370251;32;20216;-59
2022/04/14 06:10:51;;;;;;;8.87;7.97;;;;;;;11.96;83.61;95481.91;4368157;32;20206;-58
2022/04/14 06:13:17;;;;;;;10.13;7.80;;;;;;;11.95;84.00;95488.31;4364369;32;20189;-59
2022/04/14 06:15:43;;;;;;;11.00;8.47;;;;;;;11.96;83.96;95484.56;4365372;32;20193;-59
2022/04/14 06:18:08;;;;;;;11.00;7.93;;;;;;;12.15;83.22;95479.09;4372565;32;20222;-59
2022/04/14 06:20:34;;;;;;;8.47;7.50;;;;;;;12.29;82.59;95485.97;4364427;32;20246;-58
2022/04/14 06:22:59;;;;;;;8.67;7.87;;;;;;;12.31;82.83;95493.66;4374671;32;20199;-58
2022/04/14 06:25:25;;;;;;;9.10;8.27;;;;;;;12.35;82.45;95484.00;4373426;32;20274;-58
2022/04/14 06:27:52;;;;;;;11.83;8.30;;;;;;;12.44;82.06;95484.88;4372157;32;20212;-58
2022/04/14 06:30:18;;;;;;;8.50;7.60;;;;;;;12.52;81.74;95488.66;4355319;32;20181;-58
2022/04/14 06:32:56;;;;;;;10.10;8.43;;;;;;;12.68;81.22;95489.87;4356947;32;20188;-58
2022/04/14 06:35:21;;;;;;;9.93;8.67;;;;;;;12.79;80.59;95495.75;4362859;32;20205;-58
2022/04/14 06:37:46;;;;;;;9.60;8.47;;;;;;;12.78;80.48;95494.97;4365410;32;20215;-58
2022/04/14 06:40:12;;;;;;;11.90;8.73;;;;;;;12.90;80.03;95502.41;4364597;32;20189;-61
2022/04/14 06:42:37;;;;;;;10.30;8.37;;;;;;;12.95;79.77;95500.41;4356862;32;20189;-58
2022/04/14 06:45:03;;;;;;;9.37;8.57;;;;;;;13.01;79.92;95509.88;4367900;32;20197;-58
2022/04/14 06:47:28;;;;;;;19.77;4.87;;;;;;;13.13;79.17;95505.84;4351218;32;20215;-42
2022/04/14 06:49:54;;;;;;;17.27;4.57;;;;;;;13.87;85.27;95503.41;4359736;32;20204;-39
2022/04/14 06:52:21;;;;;;;19.33;5.93;;;;;;;14.43;82.98;95500.72;4364381;32;20173;-39
2022/04/14 06:54:46;;;;;;;22.20;6.60;;;;;;;15.09;80.28;95506.69;4372100;32;20250;-40
2022/04/14 06:57:11;;;;;;;23.53;6.73;;;;;;;15.71;77.84;95505.44;4375981;32;20249;-39
2022/04/14 06:59:37;;;;;;;10.23;6.00;;;;;;;16.05;75.44;95507.16;4374493;32;20223;-41
2022/04/14 07:02:02;;;;;;;11.90;8.07;;;;;;;16.42;72.83;95508.97;4362077;32;20208;-57
2022/04/14 07:04:28;;;;;;;10.30;8.43;;;;;;;16.13;67.25;95500.97;4376032;32;20254;-59
2022/04/14 07:06:53;;;;;;;10.00;7.73;;;;;;;15.62;67.77;95512.69;4372909;32;20312;-58
2022/04/14 07:09:18;;;;;;;12.73;8.30;;;;;;;15.33;68.71;95511.50;4369616;32;20199;-58
2022/04/14 07:11:44;;;;;;;9.50;7.43;;;;;;;15.18;70.40;95516.56;4367817;32;20193;-58
2022/04/14 07:14:09;;;;;;;13.30;8.20;;;;;;;15.06;70.02;95518.00;4368794;32;20207;-58
2022/04/14 07:16:34;;;;;;;12.93;8.40;;;;;;;14.82;71.59;95520.37;4376995;32;20185;-59
2022/04/14 07:19:00;;;;;;;8.77;7.50;;;;;;;14.81;71.55;95516.12;4363595;32;20197;-57
2022/04/14 07:21:25;;;;;;;13.23;7.67;;;;;;;14.79;71.97;95521.00;4373485;32;20192;-59
2022/04/14 07:23:51;;;;;;;8.10;7.33;;;;;;;14.80;71.29;95519.91;4376939;32;20188;-58
2022/04/14 07:26:17;;;;;;;12.17;7.07;;;;;;;14.78;72.08;95516.75;4372217;32;20215;-57
2022/04/14 07:28:42;;;;;;;14.57;7.87;;;;;;;14.91;71.78;95509.69;4368906;32;20202;-61
2022/04/14 07:31:07;;;;;;;7.87;7.13;;;;;;;14.94;70.68;95519.75;4365812;32;20176;-57
2022/04/14 07:33:34;;;;;;;8.37;7.60;;;;;;;15.02;70.36;95521.59;4367058;32;20193;-58
2022/04/14 07:35:59;;;;;;;11.07;7.17;;;;;;;15.07;69.84;95519.56;4373436;32;20195;-58
2022/04/14 07:38:25;;;;;;;10.77;7.37;;;;;;;15.10;70.05;95524.28;4370840;32;20220;-57
2022/04/14 07:40:50;;;;;;;8.67;7.43;;;;;;;15.27;68.91;95528.81;4355512;32;20176;-60
2022/04/14 07:43:15;;;;;;;8.40;7.60;;;;;;;15.35;68.86;95529.91;4361644;32;20249;-58
2022/04/14 07:45:42;;;;;;;11.97;7.67;;;;;;;15.59;67.33;95519.47;4374098;32;20189;-58
2022/04/14 07:48:08;;;;;;;8.73;7.00;;;;;;;15.61;67.54;95527.97;4350592;32;20189;-56
2022/04/14 07:50:34;;;;;;;11.57;8.60;;;;;;;15.71;67.40;95532.97;4359156;32;20184;-56
2022/04/14 07:52:59;;;;;;;8.13;6.33;;;;;;;15.85;67.04;95531.97;4375370;32;20236;-57
2022/04/14 07:55:30;;;;;;;9.83;8.33;;;;;;;15.94;67.12;95524.69;4367768;32;20220;-58
2022/04/14 07:57:58;;;;;;;10.70;7.13;;;;;;;16.05;65.25;95531.25;4375055;32;20220;-58
2022/04/14 08:00:24;;;;;;;13.17;8.17;;;;;;;16.12;66.73;95532.31;4364537;32;20248;-58
2022/04/14 08:02:58;;;;;;;9.63;8.53;;;;;;;16.22;66.24;95531.16;4360256;32;20188;-59
2022/04/14 08:05:33;;;;;;;9.13;4.97;;;;;;;16.27;64.47;95524.84;4365760;32;20220;-40
2022/04/14 08:08:02;;;;;;;7.10;6.03;;;;;;;17.60;65.76;95535.44;4320030;32;20185;-41
2022/04/14 08:10:28;;;;;;;8.00;6.37;;;;;;;18.39;61.17;95536.84;4342698;32;20249;-41
2022/04/14 08:12:57;;;;;;;8.63;6.40;;;;;;;18.88;58.11;95534.09;4356331;32;20221;-39
2022/04/14 08:15:24;;;;;;;9.27;7.73;;;;;;;19.03;57.82;95530.69;4359800;32;20243;-41
2022/04/14 08:17:51;;;;;;;11.10;7.03;;;;;;;19.26;55.32;95538.22;4340471;32;20200;-44
2022/04/14 08:20:18;;;;;;;10.73;7.90;;;;;;;19.23;56.05;95545.06;4329489;32;20259;-45
2022/04/14 08:22:58;;;;;;;10.43;7.37;;;;;;;19.32;55.71;95547.63;4340562;32;20201;-40
2022/04/14 08:25:34;;;;;;;9.77;7.33;;;;;;;19.28;55.28;95546.72;4363431;32;20241;-42
2022/04/14 08:28:03;;;;;;;9.07;8.17;;;;;;;19.50;54.12;95551.59;4361476;32;20298;-41
2022/04/14 08:30:31;;;;;;;10.30;8.17;;;;;;;19.51;53.96;95550.47;4336063;32;20212;-40
2022/04/14 08:33:00;;;;;;;9.80;7.87;;;;;;;19.49;53.71;95552.69;4360749;32;20189;-42
2022/04/14 08:35:27;;;;;;;10.20;8.23;;;;;;;19.68;53.36;95554.75;4358594;32;20224;-41
2022/04/14 08:38:01;;;;;;;10.53;7.80;;;;;;;19.57;52.61;95554.47;4349631;32;20257;-42
2022/04/14 08:40:40;;;;;;;8.37;7.53;;;;;;;19.62;53.53;95551.53;4326541;32;20267;-44
2022/04/14 08:43:09;;;;;;;11.17;8.23;;;;;;;19.72;53.24;95545.66;4331397;32;20232;-41
2022/04/14 08:45:53;;;;;;;7.60;6.77;;;;;;;19.62;53.45;95556.91;4363350;32;20211;-41
2022/04/14 08:48:20;;;;;;;16.80;8.03;;;;;;;19.59;53.92;95548.72;4349331;32;20210;-41
2022/04/14 08:50:50;;;;;;;9.87;8.20;;;;;;;19.59;53.63;95551.44;4354318;32;20189;-41
2022/04/14 08:53:18;;;;;;;8.40;6.93;;;;;;;19.61;53.92;95560.72;4372549;32;20255;-41
2022/04/14 08:55:43;;;;;;;7.53;6.47;;;;;;;19.76;53.63;95557.25;4346798;32;20219;-43
2022/04/14 08:58:13;;;;;;;7.80;7.00;;;;;;;19.73;53.26;95562.59;4355215;32;20193;-41
2022/04/14 09:00:40;;;;;;;8.30;7.00;;;;;;;19.85;53.11;95563.28;4346466;32;20230;-42
2022/04/14 09:03:07;;;;;;;10.03;7.80;;;;;;;19.97;52.87;95564.31;4327521;32;20211;-43
2022/04/14 09:05:34;;;;;;;9.20;7.13;;;;;;;19.93;52.82;95555.38;4339946;32;20283;-41
2022/04/14 09:08:01;;;;;;;7.60;6.43;;;;;;;19.92;52.69;95559.22;4342030;32;20264;-40
2022/04/14 09:10:27;;;;;;;7.83;6.47;;;;;;;19.97;52.72;95548.94;4353040;32;20189;-40
2022/04/14 09:12:54;;;;;;;39.27;27.27;;;;;;;20.05;52.36;95550.69;4348325;32;20211;-40
2022/04/14 09:15:21;;;;;;;10.83;9.20;;;;;;;20.09;52.10;95553.47;4330462;32;20200;-40
2022/04/14 09:17:49;;;;;;;39.50;27.07;;;;;;;20.04;52.35;95561.81;4358626;32;20180;-40
2022/04/14 09:20:53;;;;;;;16.07;11.30;;;;;;;20.03;52.33;95555.63;4354990;32;20192;-41
2022/04/14 09:23:27;;;;;;;11.37;9.37;;;;;;;19.96;52.73;95562.75;4353868;32;20180;-40
2022/04/14 09:26:14;;;;;;;10.37;8.73;;;;;;;19.96;52.28;95560.06;4364473;32;20179;-41
2022/04/14 09:29:10;;;;;;;12.53;9.97;;;;;;;19.94;52.21;95562.34;4356616;32;20215;-62
2022/04/14 09:31:54;;;;;;;10.57;9.37;;;;;;;19.67;50.75;95551.28;4348700;32;20180;-62
2022/04/14 09:34:51;;;;;;;12.63;9.30;;;;;;;19.23;52.03;95555.81;4356249;32;20211;-61
2022/04/14 09:37:27;;;;;;;13.67;8.43;;;;;;;18.76;53.52;95558.31;4355932;32;20212;-60
2022/04/14 09:39:58;;;;;;;11.40;8.47;;;;;;;18.67;52.98;95555.78;4354858;32;20180;-60
2022/04/14 09:42:30;;;;;;;10.67;8.23;;;;;;;18.58;53.73;95556.97;4358080;32;20234;-61
2022/04/14 09:45:37;;;;;;;10.13;7.73;;;;;;;18.46;54.67;95550.50;4351376;32;20224;-61
2022/04/14 09:48:12;;;;;;;12.90;8.57;;;;;;;18.40;55.05;95548.38;4292050;32;20181;-60
2022/04/14 09:50:42;;;;;;;8.67;7.07;;;;;;;18.40;55.05;95556.44;4327346;32;20177;-60
2022/04/14 09:53:24;;;;;;;9.53;6.83;;;;;;;18.42;54.01;95549.59;4352668;32;20232;-58
2022/04/14 09:55:53;;;;;;;8.30;7.47;;;;;;;18.49;53.81;95546.38;4340263;32;20262;-60
2022/04/14 09:58:26;;;;;;;12.77;7.70;;;;;;;18.63;52.95;95554.88;4368027;32;20274;-59
2022/04/14 10:00:56;;;;;;;11.93;7.87;;;;;;;18.66;53.72;95548.03;4378099;32;20192;-60
2022/04/14 10:03:28;;;;;;;10.20;7.13;;;;;;;18.52;53.91;95546.44;4347728;32;20203;-60
2022/04/14 10:06:25;;;;;;;14.97;7.70;;;;;;;18.50;54.62;95540.63;4367126;32;20267;-61
2022/04/14 10:08:53;;;;;;;11.97;7.20;;;;;;;18.49;54.11;95544.47;4367757;32;20200;-61
2022/04/14 10:11:35;;;;;;;8.40;7.37;;;;;;;18.49;53.37;95531.03;4364751;32;20193;-61
2022/04/14 10:14:11;;;;;;;8.30;7.43;;;;;;;18.53;53.65;95542.63;4379282;32;20189;-61
2022/04/14 10:16:40;;;;;;;10.87;7.83;;;;;;;18.64;52.82;95534.94;4373890;32;20317;-61
2022/04/14 10:19:10;;;;;;;9.43;7.83;;;;;;;18.77;52.01;95533.00;4374801;32;20207;-61
2022/04/14 10:21:37;;;;;;;9.57;7.70;;;;;;;18.74;52.02;95530.97;4373369;32;20198;-62
2022/04/14 10:24:05;;;;;;;9.23;7.20;;;;;;;18.71;52.56;95535.13;4363910;32;20191;-61
2022/04/14 10:26:38;;;;;;;12.80;7.50;;;;;;;18.67;53.38;95536.97;4374022;32;20226;-61
2022/04/14 10:29:06;;;;;;;10.43;7.37;;;;;;;18.70;53.46;95530.91;4355299;32;20292;-61
2022/04/14 10:31:36;;;;;;;12.70;9.17;;;;;;;18.71;53.39;95528.97;4346573;32;20189;-61
2022/04/14 10:34:07;;;;;;;11.90;9.27;;;;;;;18.80;53.82;95537.69;4335447;32;20185;-61
2022/04/14 10:36:41;;;;;;;20.20;14.83;;;;;;;18.75;52.85;95535.25;4348815;32;20186;-61
2022/04/14 10:39:10;;;;;;;11.30;8.47;;;;;;;18.74;53.34;95526.37;4352012;32;20207;-61
2022/04/14 10:41:42;;;;;;;9.47;8.50;;;;;;;18.83;52.65;95526.28;4347813;32;20185;-62
2022/04/14 10:44:09;;;;;;;10.03;6.27;;;;;;;18.92;51.73;95524.22;4370817;32;20275;-62
2022/04/14 10:46:47;;;;;;;10.93;8.70;;;;;;;19.00;52.10;95525.97;4346225;32;20343;-61
2022/04/14 10:49:16;;;;;;;29.70;20.53;;;;;;;19.07;51.26;95520.81;4337262;32;20195;-61
2022/04/14 10:51:43;;;;;;;143.53;95.60;;;;;;;19.00;51.35;95528.69;4331261;32;20185;-61
2022/04/14 10:54:11;;;;;;;13.20;10.87;;;;;;;19.00;51.21;95523.28;4358091;32;20198;-61
2022/04/14 10:56:45;;;;;;;11.83;8.70;;;;;;;19.05;50.65;95523.06;4336446;32;20277;-61
2022/04/14 10:59:23;;;;;;;21.37;16.07;;;;;;;19.18;50.85;95526.47;4345059;32;20181;-60
2022/04/14 11:01:54;;;;;;;30.93;20.23;;;;;;;19.15;51.46;95530.62;4364663;32;20181;-60
2022/04/14 11:04:35;;;;;;;36.63;29.60;;;;;;;19.16;52.45;95534.09;4336754;32;20199;-58
2022/04/14 11:07:12;;;;;;;7.63;6.90;;;;;;;19.22;49.92;95522.75;4370707;32;20203;-61
2022/04/14 11:10:03;;;;;;;10.70;7.30;;;;;;;19.32;48.24;95526.09;4344282;32;20204;-59
2022/04/14 11:12:42;;;;;;;9.83;7.63;;;;;;;19.27;49.56;95529.03;4333503;32;20181;-60
2022/04/14 11:15:09;;;;;;;9.97;8.77;;;;;;;19.24;50.34;95525.09;4357521;32;20290;-60
2022/04/14 11:17:52;;;;;;;8.93;7.50;;;;;;;19.39;49.59;95526.25;4348234;32;20220;-58
2022/04/14 11:20:44;;;;;;;9.37;8.47;;;;;;;19.32;49.71;95515.34;4346380;32;20185;-59
2022/04/14 11:23:13;;;;;;;109.03;67.27;;;;;;;19.21;51.25;95520.41;4363524;32;20197;-59
2022/04/14 11:25:53;;;;;;;9.43;7.93;;;;;;;19.20;50.87;95525.00;4363033;32;20287;-60
2022/04/14 11:28:30;;;;;;;6.43;5.90;;;;;;;19.31;50.66;95530.69;4357022;32;20196;-61
2022/04/14 11:30:59;;;;;;;8.37;7.57;;;;;;;19.34;50.73;95529.19;4369758;32;20224;-60
2022/04/14 11:33:31;;;;;;;8.47;7.53;;;;;;;19.41;49.05;95529.41;4346096;32;20199;-58